Time;durP1;ratioP1;P1;durP2;ratioP2;P2;SDS_P1;SDS_P2;PMS_P1;PMS_P2;Temp;Humidity;BMP_temperature;BMP_pressure;BME280_temperature;BME280_humidity;BME280_pressure;Samples;Min_cycle;Max_cycle;Signal;HPM_P1;HPM_P2
2022/07/30 00:01:30;;;;;;;;;;;9.70;99.90;;;;;;5094835;28;19924;-69
2022/07/30 00:03:56;;;;;;;;;;;9.80;99.90;;;;;;5094805;28;19932;-70
2022/07/30 00:06:23;;;;;;;;;;;9.90;99.90;;;;;;5094583;28;19920;-69
2022/07/30 00:08:50;;;;;;;;;;;10.00;99.90;;;;;;5094621;28;19908;-70
2022/07/30 00:11:16;;;;;;;;;;;10.10;99.90;;;;;;5094865;28;19947;-69
2022/07/30 00:13:43;;;;;;;;;;;10.20;99.90;;;;;;5094375;28;20018;-70
2022/07/30 00:16:10;;;;;;;;;;;10.30;99.90;;;;;;5094191;28;19943;-69
2022/07/30 00:18:37;;;;;;;;;;;10.40;99.90;;;;;;5094321;28;20002;-70
2022/07/30 00:21:04;;;;;;;;;;;10.60;99.90;;;;;;5094494;28;19908;-70
2022/07/30 00:23:31;;;;;;;;;;;10.60;99.90;;;;;;5094128;28;19958;-70
2022/07/30 00:25:57;;;;;;;;;;;10.70;99.90;;;;;;5094178;28;20262;-69
2022/07/30 00:28:24;;;;;;;;;;;10.70;99.90;;;;;;5085381;28;19944;-69
2022/07/30 00:30:51;;;;;;;;;;;10.70;99.90;;;;;;5056530;28;19983;-69
2022/07/30 00:33:18;;;;;;;;;;;10.70;99.90;;;;;;5053225;28;20355;-69
2022/07/30 00:35:44;;;;;;;;;;;10.70;99.90;;;;;;5053017;28;19912;-69
2022/07/30 00:38:11;;;;;;;;;;;10.80;99.90;;;;;;5052532;28;19919;-70
2022/07/30 00:40:38;;;;;;;;;;;10.90;99.90;;;;;;5052942;28;19909;-70
2022/07/30 00:43:06;;;;;;;;;;;11.10;99.90;;;;;;5052998;28;19909;-69
2022/07/30 00:45:34;;;;;;;;;;;11.10;99.90;;;;;;5052947;28;20282;-70
2022/07/30 00:48:01;;;;;;;;;;;11.10;99.90;;;;;;5053268;28;19917;-71
2022/07/30 00:50:27;;;;;;;;;;;11.20;99.90;;;;;;5052978;28;19915;-70
2022/07/30 00:52:54;;;;;;;;;;;11.30;99.90;;;;;;5052861;28;20386;-70
2022/07/30 00:55:21;;;;;;;;;;;11.30;99.90;;;;;;5052726;28;19909;-70
2022/07/30 00:57:47;;;;;;;;;;;11.30;99.90;;;;;;5060318;28;19909;-71
2022/07/30 01:00:15;;;;;;;;;;;11.50;99.90;;;;;;5058061;28;20359;-70
2022/07/30 01:02:42;;;;;;;;;;;11.60;99.90;;;;;;5052901;28;19920;-68
2022/07/30 01:05:09;;;;;;;;;;;11.60;99.90;;;;;;5084702;28;19942;-68
2022/07/30 01:07:35;;;;;;;;;;;11.80;99.90;;;;;;5052240;28;19917;-69
2022/07/30 01:10:03;;;;;;;;;;;11.90;99.90;;;;;;5052450;28;19916;-69
2022/07/30 01:12:30;;;;;;;;;;;12.10;99.90;;;;;;5052474;28;20291;-69
2022/07/30 01:14:57;;;;;;;;;;;12.40;99.90;;;;;;5052641;28;19915;-70
2022/07/30 01:17:24;;;;;;;;;;;12.70;99.90;;;;;;5052416;28;19992;-69
2022/07/30 01:19:54;;;;;;;;;;;12.90;99.90;;;;;;5052429;28;19916;-68
2022/07/30 01:22:27;;;;;;;;;;;13.00;99.90;;;;;;5052167;28;20866;-69
2022/07/30 01:25:03;;;;;;;;;;;13.10;99.90;;;;;;5052599;28;20278;-69
2022/07/30 01:27:32;;;;;;;;;;;13.20;99.90;;;;;;5067848;28;20282;-69
2022/07/30 01:30:00;;;;;;;;;;;13.20;99.90;;;;;;5052214;28;19932;-69
2022/07/30 01:32:27;;;;;;;;;;;13.20;99.90;;;;;;5052624;28;19909;-68
2022/07/30 01:34:56;;;;;;;;;;;13.20;99.90;;;;;;5052455;28;19913;-68
2022/07/30 01:37:23;;;;;;;;;;;13.10;99.90;;;;;;5052304;28;20298;-68
2022/07/30 01:39:50;;;;;;;;;;;12.90;99.90;;;;;;5052466;28;19992;-69
2022/07/30 01:42:18;;;;;;;;;;;12.80;99.90;;;;;;5052083;28;19909;-69
2022/07/30 01:44:46;;;;;;;;;;;12.80;99.90;;;;;;5052267;28;20347;-69
2022/07/30 01:47:13;;;;;;;;;;;12.90;99.90;;;;;;5052059;28;20401;-68
2022/07/30 01:49:40;;;;;;;;;;;12.90;99.90;;;;;;5052034;28;20274;-69
2022/07/30 01:52:08;;;;;;;;;;;12.90;99.90;;;;;;5051624;28;20308;-70
2022/07/30 01:54:35;;;;;;;;;;;12.90;99.90;;;;;;5084019;28;19962;-69
2022/07/30 01:57:03;;;;;;;;;;;12.90;99.90;;;;;;5052069;28;20023;-69
2022/07/30 01:59:32;;;;;;;;;;;13.00;99.90;;;;;;5051760;28;19912;-68
2022/07/30 02:01:59;;;;;;;;;;;13.00;99.90;;;;;;5051896;28;19909;-69
2022/07/30 02:04:26;;;;;;;;;;;13.00;99.90;;;;;;5049176;28;19908;-68
2022/07/30 02:07:02;;;;;;;;;;;13.00;99.90;;;;;;5052325;28;19924;-68
2022/07/30 02:09:32;;;;;;;;;;;13.00;99.90;;;;;;5053864;28;19908;-69
2022/07/30 02:14:54;;;;;;;;;;;13.10;99.90;;;;;;5081471;28;19986;-69
2022/07/30 02:17:23;;;;;;;;;;;13.10;99.90;;;;;;5053328;28;20372;-69
2022/07/30 02:19:52;;;;;;;;;;;13.10;99.90;;;;;;5053532;28;19916;-69
2022/07/30 02:22:20;;;;;;;;;;;13.00;99.90;;;;;;5053169;28;20337;-70
2022/07/30 02:24:47;;;;;;;;;;;13.00;99.80;;;;;;5053700;28;20359;-70
2022/07/30 02:27:25;;;;;;;;;;;13.00;99.70;;;;;;5053614;28;20427;-69
2022/07/30 02:29:53;;;;;;;;;;;13.00;99.40;;;;;;5053350;28;19917;-70
2022/07/30 02:32:22;;;;;;;;;;;13.10;97.70;;;;;;5054098;28;19909;-70
2022/07/30 02:34:51;;;;;;;;;;;13.10;99.60;;;;;;5054425;28;19908;-70
2022/07/30 02:37:21;;;;;;;;;;;13.00;99.60;;;;;;5053668;28;19909;-70
2022/07/30 02:39:49;;;;;;;;;;;13.10;99.90;;;;;;5053805;28;19913;-69
2022/07/30 02:42:17;;;;;;;;;;;13.20;99.50;;;;;;5058094;28;19913;-68
2022/07/30 02:44:44;;;;;;;;;;;13.20;99.90;;;;;;5054542;28;19915;-69
2022/07/30 02:47:15;;;;;;;;;;;13.10;99.90;;;;;;5052996;28;19952;-69
2022/07/30 02:49:42;;;;;;;;;;;13.20;99.90;;;;;;5074590;28;19912;-69
2022/07/30 02:52:12;;;;;;;;;;;13.20;99.90;;;;;;5093373;28;19912;-69
2022/07/30 02:54:39;;;;;;;;;;;13.30;99.90;;;;;;5093745;28;20010;-69
2022/07/30 02:57:06;;;;;;;;;;;13.40;99.90;;;;;;5093504;28;19947;-69
2022/07/30 02:59:35;;;;;;;;;;;13.30;99.90;;;;;;5092010;28;20313;-69
2022/07/30 03:02:02;;;;;;;;;;;13.30;99.90;;;;;;5093395;28;19958;-69
2022/07/30 03:04:31;;;;;;;;;;;13.40;99.90;;;;;;5093748;28;19908;-69
2022/07/30 03:06:58;;;;;;;;;;;13.40;99.90;;;;;;5093628;28;20010;-69
2022/07/30 03:09:25;;;;;;;;;;;13.50;99.90;;;;;;5093607;28;19912;-69
2022/07/30 03:11:53;;;;;;;;;;;13.40;99.90;;;;;;5093865;28;20002;-69
2022/07/30 03:14:20;;;;;;;;;;;13.50;99.90;;;;;;5093573;28;19935;-70
2022/07/30 03:16:48;;;;;;;;;;;13.40;99.90;;;;;;5093796;28;19951;-70
2022/07/30 03:19:16;;;;;;;;;;;13.30;99.90;;;;;;5092954;28;19946;-70
2022/07/30 03:21:45;;;;;;;;;;;13.30;99.90;;;;;;5093132;28;20273;-70
2022/07/30 03:24:12;;;;;;;;;;;13.30;99.90;;;;;;5093145;28;19912;-68
2022/07/30 03:26:39;;;;;;;;;;;13.30;99.90;;;;;;5093701;28;20046;-69
2022/07/30 03:29:07;;;;;;;;;;;13.30;99.90;;;;;;5093314;28;19908;-70
2022/07/30 03:31:35;;;;;;;;;;;13.40;99.90;;;;;;5093218;28;19919;-68
2022/07/30 03:34:01;;;;;;;;;;;13.40;99.90;;;;;;5092403;28;20390;-68
2022/07/30 03:36:29;;;;;;;;;;;13.30;99.90;;;;;;5092766;28;19912;-69
2022/07/30 03:38:55;;;;;;;;;;;13.30;99.90;;;;;;5092947;28;19916;-69
2022/07/30 03:41:22;;;;;;;;;;;13.40;99.90;;;;;;5093041;28;19916;-69
2022/07/30 03:43:50;;;;;;;;;;;13.50;99.90;;;;;;5092923;28;19908;-68
2022/07/30 03:46:17;;;;;;;;;;;13.60;99.90;;;;;;5092560;28;19916;-69
2022/07/30 03:48:45;;;;;;;;;;;14.00;99.60;;;;;;5092319;28;19923;-69
2022/07/30 03:51:12;;;;;;;;;;;13.70;98.80;;;;;;5092429;28;19912;-69
2022/07/30 03:53:41;;;;;;;;;;;13.60;99.50;;;;;;5092745;28;19920;-69
2022/07/30 03:56:08;;;;;;;;;;;13.70;99.40;;;;;;5091067;28;19912;-69
2022/07/30 03:58:37;;;;;;;;;;;13.70;99.70;;;;;;5092447;28;19912;-70
2022/07/30 04:01:04;;;;;;;;;;;13.70;99.40;;;;;;5090475;28;19928;-70
2022/07/30 04:03:31;;;;;;;;;;;13.70;99.60;;;;;;5092419;28;19930;-69
2022/07/30 04:05:58;;;;;;;;;;;13.60;99.60;;;;;;5092368;28;20569;-69
2022/07/30 04:08:26;;;;;;;;;;;13.60;99.70;;;;;;5092281;28;19950;-70
2022/07/30 04:10:53;;;;;;;;;;;13.70;99.80;;;;;;5092478;28;20336;-69
2022/07/30 04:13:20;;;;;;;;;;;13.70;99.30;;;;;;5091995;28;19912;-70
2022/07/30 04:15:52;;;;;;;;;;;13.50;99.90;;;;;;5092189;28;19911;-69
2022/07/30 04:18:19;;;;;;;;;;;13.40;99.90;;;;;;5091931;28;20409;-70
2022/07/30 04:20:48;;;;;;;;;;;13.50;99.90;;;;;;5092087;28;19987;-70
2022/07/30 04:23:14;;;;;;;;;;;13.50;99.90;;;;;;5092408;28;19915;-69
2022/07/30 04:25:42;;;;;;;;;;;13.70;99.80;;;;;;5092053;28;19912;-69
2022/07/30 04:28:10;;;;;;;;;;;13.70;99.90;;;;;;5091249;28;19916;-69
2022/07/30 04:30:37;;;;;;;;;;;13.60;99.90;;;;;;5090858;28;20509;-70
2022/07/30 04:33:04;;;;;;;;;;;13.60;99.90;;;;;;5091730;28;19908;-70
2022/07/30 04:35:32;;;;;;;;;;;13.70;99.90;;;;;;5091567;28;19908;-70
2022/07/30 04:37:59;;;;;;;;;;;13.90;99.90;;;;;;5091751;28;19912;-70
2022/07/30 04:40:26;;;;;;;;;;;13.90;99.80;;;;;;5091261;28;19914;-69
2022/07/30 04:42:52;;;;;;;;;;;13.90;99.90;;;;;;5091397;28;19947;-69
2022/07/30 04:45:19;;;;;;;;;;;13.80;99.90;;;;;;5091504;28;20378;-69
2022/07/30 04:47:46;;;;;;;;;;;13.70;99.90;;;;;;5091378;28;19916;-70
2022/07/30 04:50:13;;;;;;;;;;;13.70;99.90;;;;;;5091317;28;20354;-69
2022/07/30 04:52:41;;;;;;;;;;;13.70;99.90;;;;;;5091114;28;19963;-70
2022/07/30 04:55:09;;;;;;;;;;;13.80;99.90;;;;;;5091479;28;19915;-69
2022/07/30 04:57:37;;;;;;;;;;;13.90;99.90;;;;;;5091399;28;19915;-69
2022/07/30 05:00:04;;;;;;;;;;;13.80;99.80;;;;;;5090906;28;19924;-69
2022/07/30 05:02:33;;;;;;;;;;;13.90;99.90;;;;;;5091396;28;20325;-70
2022/07/30 05:04:59;;;;;;;;;;;13.90;99.80;;;;;;5091425;28;19912;-69
2022/07/30 05:07:27;;;;;;;;;;;13.80;99.90;;;;;;5090519;28;19927;-69
2022/07/30 05:09:53;;;;;;;;;;;13.70;99.90;;;;;;5091367;28;20049;-68
2022/07/30 05:12:20;;;;;;;;;;;13.80;99.90;;;;;;5090882;28;19999;-69
2022/07/30 05:14:47;;;;;;;;;;;13.90;99.90;;;;;;5091156;28;20368;-71
2022/07/30 05:17:14;;;;;;;;;;;13.90;99.90;;;;;;5091187;28;20063;-70
2022/07/30 05:19:40;;;;;;;;;;;13.80;99.90;;;;;;5090911;28;19908;-69
2022/07/30 05:22:07;;;;;;;;;;;13.80;99.90;;;;;;5090727;28;20021;-70
2022/07/30 05:24:34;;;;;;;;;;;13.70;99.90;;;;;;5090976;28;19912;-70
2022/07/30 05:27:00;;;;;;;;;;;13.60;99.90;;;;;;5091011;28;19947;-68
2022/07/30 05:29:27;;;;;;;;;;;13.90;99.90;;;;;;5091071;28;19999;-69
2022/07/30 05:31:54;;;;;;;;;;;14.10;99.90;;;;;;5090650;28;20385;-69
2022/07/30 05:34:21;;;;;;;;;;;14.10;99.90;;;;;;5090761;28;19916;-69
2022/07/30 05:36:48;;;;;;;;;;;14.00;99.90;;;;;;5090791;28;19908;-69
2022/07/30 05:39:15;;;;;;;;;;;14.00;99.90;;;;;;5090963;28;20281;-69
2022/07/30 05:41:41;;;;;;;;;;;14.00;99.90;;;;;;5092149;28;19912;-69
2022/07/30 05:44:08;;;;;;;;;;;14.00;99.90;;;;;;5094926;28;20002;-69
2022/07/30 05:46:35;;;;;;;;;;;14.00;99.90;;;;;;5093260;28;19922;-69
2022/07/30 05:49:02;;;;;;;;;;;14.00;99.90;;;;;;5094854;28;19916;-69
2022/07/30 05:51:29;;;;;;;;;;;13.80;99.90;;;;;;5094819;28;19919;-69
2022/07/30 05:53:55;;;;;;;;;;;13.80;99.90;;;;;;5094872;28;20396;-69
2022/07/30 05:56:22;;;;;;;;;;;13.60;99.90;;;;;;5094628;28;19931;-69
2022/07/30 05:58:49;;;;;;;;;;;13.60;99.90;;;;;;5094373;28;19915;-69
2022/07/30 06:01:17;;;;;;;;;;;13.70;99.90;;;;;;5094804;28;20437;-68
2022/07/30 06:03:43;;;;;;;;;;;13.80;99.90;;;;;;5095568;28;19915;-70
2022/07/30 06:06:10;;;;;;;;;;;13.80;99.90;;;;;;5096153;28;19981;-69
2022/07/30 06:08:37;;;;;;;;;;;13.70;99.90;;;;;;5096520;28;19999;-69
2022/07/30 06:11:04;;;;;;;;;;;13.80;99.90;;;;;;5096554;28;19915;-70
2022/07/30 06:13:31;;;;;;;;;;;13.70;99.90;;;;;;5095285;28;19908;-69
2022/07/30 06:15:57;;;;;;;;;;;13.60;99.90;;;;;;5096457;28;19908;-71
2022/07/30 06:18:24;;;;;;;;;;;13.50;99.90;;;;;;5096262;28;19915;-70
2022/07/30 06:20:53;;;;;;;;;;;13.40;99.90;;;;;;5096122;28;19908;-70
2022/07/30 06:23:20;;;;;;;;;;;13.40;99.90;;;;;;5096232;28;19908;-69
2022/07/30 06:25:47;;;;;;;;;;;13.40;99.90;;;;;;5096300;28;19958;-70
2022/07/30 06:28:14;;;;;;;;;;;13.40;99.90;;;;;;5095944;28;20389;-69
2022/07/30 06:30:44;;;;;;;;;;;13.40;99.90;;;;;;5096163;28;19999;-71
2022/07/30 06:33:11;;;;;;;;;;;13.40;99.90;;;;;;5096207;28;19908;-69
2022/07/30 06:35:38;;;;;;;;;;;13.30;99.90;;;;;;5095967;28;19951;-70
2022/07/30 06:38:05;;;;;;;;;;;13.40;99.90;;;;;;5095866;28;19916;-70
2022/07/30 06:40:32;;;;;;;;;;;13.30;99.90;;;;;;5096009;28;19991;-71
2022/07/30 06:42:59;;;;;;;;;;;13.30;99.90;;;;;;5096061;28;20427;-70
2022/07/30 06:45:25;;;;;;;;;;;13.30;99.90;;;;;;5095863;28;20389;-70
2022/07/30 06:47:56;;;;;;;;;;;13.20;99.90;;;;;;5095779;28;19927;-70
2022/07/30 06:50:23;;;;;;;;;;;13.10;99.90;;;;;;5095406;28;19908;-71
2022/07/30 06:52:49;;;;;;;;;;;13.10;99.90;;;;;;5094751;28;20282;-69
2022/07/30 06:55:16;;;;;;;;;;;13.00;99.90;;;;;;5095916;28;19915;-68
2022/07/30 06:57:43;;;;;;;;;;;13.00;99.90;;;;;;5095899;28;19908;-69
2022/07/30 07:00:10;;;;;;;;;;;12.90;99.90;;;;;;5095312;28;20365;-69
2022/07/30 07:02:38;;;;;;;;;;;12.80;99.90;;;;;;5095533;28;20362;-69
2022/07/30 07:05:06;;;;;;;;;;;12.90;99.90;;;;;;5095528;28;19915;-69
2022/07/30 07:07:33;;;;;;;;;;;12.80;99.90;;;;;;5095378;28;19920;-69
2022/07/30 07:10:00;;;;;;;;;;;12.80;99.90;;;;;;5095495;28;19967;-69
2022/07/30 07:12:27;;;;;;;;;;;12.70;99.90;;;;;;5095513;28;19934;-69
2022/07/30 07:14:54;;;;;;;;;;;12.80;99.90;;;;;;5068318;28;20352;-68
2022/07/30 07:17:20;;;;;;;;;;;12.80;99.90;;;;;;5055004;28;19913;-69
2022/07/30 07:19:47;;;;;;;;;;;12.70;99.90;;;;;;5055050;28;20377;-69
2022/07/30 07:22:14;;;;;;;;;;;12.60;99.90;;;;;;5054743;28;20000;-68
2022/07/30 07:24:40;;;;;;;;;;;12.60;99.90;;;;;;5054469;28;19908;-69
2022/07/30 07:27:08;;;;;;;;;;;12.60;99.90;;;;;;5054905;28;20015;-69
2022/07/30 07:29:34;;;;;;;;;;;12.50;99.90;;;;;;5054942;28;19962;-69
2022/07/30 07:32:01;;;;;;;;;;;12.50;99.90;;;;;;5054510;28;19908;-69
2022/07/30 07:34:28;;;;;;;;;;;12.40;99.90;;;;;;5054672;28;20398;-68
2022/07/30 07:36:54;;;;;;;;;;;12.40;99.90;;;;;;5054625;28;19947;-69
2022/07/30 07:39:21;;;;;;;;;;;12.40;99.90;;;;;;5054162;28;19931;-69
2022/07/30 07:41:48;;;;;;;;;;;12.30;99.90;;;;;;5053525;28;19989;-69
2022/07/30 07:44:14;;;;;;;;;;;12.30;99.90;;;;;;5054631;28;19916;-70
2022/07/30 07:46:41;;;;;;;;;;;12.20;99.90;;;;;;5054521;28;19917;-71
2022/07/30 07:49:08;;;;;;;;;;;12.10;99.90;;;;;;5052038;28;20263;-71
2022/07/30 07:51:35;;;;;;;;;;;12.10;99.90;;;;;;5052286;28;19920;-70
2022/07/30 07:54:01;;;;;;;;;;;12.00;99.90;;;;;;5051567;28;20290;-71
2022/07/30 07:56:28;;;;;;;;;;;12.00;99.90;;;;;;5052408;28;20488;-70
2022/07/30 07:58:56;;;;;;;;;;;12.00;99.90;;;;;;5051836;28;20023;-70
2022/07/30 08:01:23;;;;;;;;;;;11.90;99.90;;;;;;5051745;28;19925;-70
2022/07/30 08:03:50;;;;;;;;;;;11.90;99.90;;;;;;5051740;28;19934;-69
2022/07/30 08:06:16;;;;;;;;;;;11.90;99.90;;;;;;5051476;28;20282;-69
2022/07/30 08:08:43;;;;;;;;;;;11.80;99.90;;;;;;5051498;28;19912;-70
2022/07/30 08:11:13;;;;;;;;;;;11.80;99.90;;;;;;5052034;28;19909;-70
2022/07/30 08:13:43;;;;;;;;;;;11.70;99.90;;;;;;5051003;28;20304;-69
2022/07/30 08:16:10;;;;;;;;;;;11.70;99.90;;;;;;5051877;28;20003;-69
2022/07/30 08:18:37;;;;;;;;;;;11.60;99.90;;;;;;5051937;28;20322;-69
2022/07/30 08:21:04;;;;;;;;;;;11.60;99.90;;;;;;5051755;28;19935;-69
2022/07/30 08:23:31;;;;;;;;;;;11.60;99.90;;;;;;5051504;28;19915;-68
2022/07/30 08:25:58;;;;;;;;;;;11.50;99.90;;;;;;5051606;28;20287;-68
2022/07/30 08:28:25;;;;;;;;;;;11.50;99.90;;;;;;5051161;28;19916;-68
2022/07/30 08:30:51;;;;;;;;;;;11.50;99.90;;;;;;5051742;28;20004;-67
2022/07/30 08:33:18;;;;;;;;;;;11.60;99.90;;;;;;5051319;28;19909;-68
2022/07/30 08:35:45;;;;;;;;;;;11.60;99.90;;;;;;5051512;28;19913;-68
2022/07/30 08:38:12;;;;;;;;;;;11.60;99.90;;;;;;5050873;28;19949;-70
2022/07/30 08:40:39;;;;;;;;;;;11.60;99.90;;;;;;5051027;28;19982;-68
2022/07/30 08:43:06;;;;;;;;;;;11.60;99.90;;;;;;5051381;28;19935;-68
2022/07/30 08:45:34;;;;;;;;;;;11.60;99.90;;;;;;5051286;28;19921;-68
2022/07/30 08:48:01;;;;;;;;;;;11.60;99.90;;;;;;5051319;28;19917;-68
2022/07/30 08:50:28;;;;;;;;;;;11.50;99.90;;;;;;5051101;28;19909;-67
2022/07/30 08:52:55;;;;;;;;;;;11.50;99.90;;;;;;5050501;28;19916;-68
2022/07/30 08:55:22;;;;;;;;;;;11.40;99.90;;;;;;5050983;28;19913;-68
2022/07/30 08:57:49;;;;;;;;;;;11.40;99.90;;;;;;5051248;28;19916;-71
2022/07/30 09:00:17;;;;;;;;;;;11.40;99.90;;;;;;5050674;28;19921;-68
2022/07/30 09:02:44;;;;;;;;;;;11.40;99.90;;;;;;5051236;28;20422;-69
2022/07/30 09:05:12;;;;;;;;;;;11.40;99.90;;;;;;5052331;28;19913;-68
2022/07/30 09:07:38;;;;;;;;;;;11.50;99.90;;;;;;5052424;28;19962;-69
2022/07/30 09:10:06;;;;;;;;;;;11.50;99.90;;;;;;5052870;28;20270;-69
2022/07/30 09:12:43;;;;;;;;;;;11.40;99.90;;;;;;5053023;28;20030;-70
2022/07/30 09:15:18;;;;;;;;;;;11.40;99.90;;;;;;5052857;28;19909;-70
2022/07/30 09:18:01;;;;;;;;;;;11.30;99.90;;;;;;5053397;28;19909;-68
2022/07/30 09:20:29;;;;;;;;;;;11.30;99.90;;;;;;5053052;28;19912;-70
2022/07/30 09:22:56;;;;;;;;;;;11.30;99.90;;;;;;5052624;28;20024;-69
2022/07/30 09:25:37;;;;;;;;;;;11.20;99.90;;;;;;5055182;28;19909;-70
2022/07/30 09:28:04;;;;;;;;;;;11.20;99.90;;;;;;5054315;28;19924;-69
2022/07/30 09:30:53;;;;;;;;;;;11.20;99.90;;;;;;5052560;28;19915;-69
2022/07/30 09:33:35;;;;;;;;;;;11.20;99.90;;;;;;5053102;28;19909;-69
2022/07/30 09:36:03;;;;;;;;;;;11.10;99.90;;;;;;5052715;28;19913;-70
2022/07/30 09:38:40;;;;;;;;;;;11.10;99.90;;;;;;5052898;28;19909;-69
2022/07/30 09:41:07;;;;;;;;;;;11.10;99.90;;;;;;5052904;28;19914;-69
2022/07/30 09:43:41;;;;;;;;;;;11.10;99.90;;;;;;5052915;28;19908;-69
2022/07/30 09:46:08;;;;;;;;;;;11.10;99.90;;;;;;5052770;28;19916;-70
2022/07/30 09:48:35;;;;;;;;;;;11.10;99.90;;;;;;5052720;28;19920;-69
2022/07/30 09:51:01;;;;;;;;;;;11.10;99.90;;;;;;5052835;28;19916;-70
2022/07/30 09:53:28;;;;;;;;;;;11.00;99.90;;;;;;5052633;28;20098;-70
2022/07/30 09:55:55;;;;;;;;;;;11.00;99.90;;;;;;5052808;28;19931;-70
2022/07/30 09:58:22;;;;;;;;;;;11.00;99.90;;;;;;5052509;28;20428;-69
2022/07/30 10:00:55;;;;;;;;;;;11.00;99.90;;;;;;5052537;28;19921;-69
2022/07/30 10:03:24;;;;;;;;;;;10.90;99.90;;;;;;5052504;28;19913;-70
2022/07/30 10:05:55;;;;;;;;;;;11.00;99.90;;;;;;5052505;28;19909;-70
2022/07/30 10:08:37;;;;;;;;;;;11.00;99.90;;;;;;5052438;28;19917;-69
2022/07/30 10:11:04;;;;;;;;;;;10.90;99.90;;;;;;5052554;28;19908;-69
2022/07/30 10:13:33;;;;;;;;;;;11.00;99.90;;;;;;5052443;28;19945;-69
2022/07/30 10:15:59;;;;;;;;;;;11.00;99.90;;;;;;5052307;28;19924;-69
2022/07/30 10:18:26;;;;;;;;;;;11.00;99.90;;;;;;5052401;28;19908;-69
2022/07/30 10:20:53;;;;;;;;;;;11.00;99.90;;;;;;5052528;28;20394;-69
2022/07/30 10:23:20;;;;;;;;;;;11.00;99.90;;;;;;5052468;28;19916;-70
2022/07/30 10:25:47;;;;;;;;;;;10.90;99.90;;;;;;5052471;28;19909;-69
2022/07/30 10:28:14;;;;;;;;;;;10.90;99.90;;;;;;5055220;28;20359;-69
2022/07/30 10:30:41;;;;;;;;;;;10.80;99.90;;;;;;5054840;28;19931;-70
2022/07/30 10:33:09;;;;;;;;;;;10.80;99.90;;;;;;5056092;28;19908;-69
2022/07/30 10:35:35;;;;;;;;;;;10.80;99.90;;;;;;5055728;28;19908;-70
2022/07/30 10:38:03;;;;;;;;;;;10.80;99.90;;;;;;5055786;28;19952;-70
2022/07/30 10:40:37;;;;;;;;;;;10.70;99.90;;;;;;5056047;28;19908;-69
2022/07/30 10:43:31;;;;;;;;;;;10.70;99.90;;;;;;5055820;28;19955;-70
2022/07/30 10:46:09;;;;;;;;;;;10.60;99.90;;;;;;5055803;28;19913;-70
2022/07/30 10:48:37;;;;;;;;;;;10.60;99.90;;;;;;5055718;28;19919;-70
2022/07/30 10:51:03;;;;;;;;;;;10.60;99.90;;;;;;5055679;28;20355;-70
2022/07/30 10:53:38;;;;;;;;;;;10.60;99.90;;;;;;5055716;28;19952;-70
2022/07/30 10:56:24;;;;;;;;;;;10.60;99.90;;;;;;5055447;28;19948;-70
2022/07/30 10:58:58;;;;;;;;;;;10.60;99.90;;;;;;5055354;28;19909;-69
2022/07/30 11:01:24;;;;;;;;;;;10.60;99.90;;;;;;5055710;28;20005;-70
2022/07/30 11:04:21;;;;;;;;;;;10.60;99.90;;;;;;5055613;28;19909;-69
2022/07/30 11:06:49;;;;;;;;;;;10.60;99.90;;;;;;5050807;28;20290;-70
2022/07/30 11:09:36;;;;;;;;;;;10.70;99.90;;;;;;5055892;28;19916;-69
2022/07/30 11:12:03;;;;;;;;;;;10.70;99.90;;;;;;5055302;28;20037;-69
2022/07/30 11:14:45;;;;;;;;;;;10.80;99.90;;;;;;5055498;28;19944;-69
2022/07/30 11:17:18;;;;;;;;;;;10.80;99.90;;;;;;5055541;28;19952;-70
2022/07/30 11:20:04;;;;;;;;;;;10.80;99.90;;;;;;5054029;28;19962;-69
2022/07/30 11:22:39;;;;;;;;;;;10.90;99.90;;;;;;5055319;28;19908;-69
2022/07/30 11:25:11;;;;;;;;;;;10.90;99.90;;;;;;5055124;28;19979;-70
2022/07/30 11:27:38;;;;;;;;;;;10.80;99.90;;;;;;5055144;28;20015;-69
2022/07/30 11:30:25;;;;;;;;;;;10.90;99.90;;;;;;5055076;28;19909;-69
2022/07/30 11:32:52;;;;;;;;;;;10.80;99.90;;;;;;5055054;28;19916;-69
2022/07/30 11:35:20;;;;;;;;;;;10.80;99.90;;;;;;5055021;28;19954;-69
2022/07/30 11:38:07;;;;;;;;;;;10.80;99.90;;;;;;5055061;28;20256;-69
2022/07/30 11:40:40;;;;;;;;;;;10.80;99.90;;;;;;5054821;28;19909;-69
2022/07/30 11:43:31;;;;;;;;;;;10.80;99.90;;;;;;5054894;28;19909;-69
2022/07/30 11:46:08;;;;;;;;;;;10.80;99.90;;;;;;5055800;28;19908;-70
2022/07/30 11:48:36;;;;;;;;;;;10.70;99.90;;;;;;5054607;28;19917;-69
2022/07/30 11:51:03;;;;;;;;;;;10.60;99.90;;;;;;5054389;28;19996;-70
2022/07/30 11:53:30;;;;;;;;;;;10.60;99.90;;;;;;5054748;28;19916;-70
2022/07/30 11:55:58;;;;;;;;;;;10.70;99.90;;;;;;5054679;28;19909;-70
2022/07/30 11:58:35;;;;;;;;;;;10.70;99.90;;;;;;5054463;28;20306;-70
2022/07/30 12:01:04;;;;;;;;;;;10.60;99.90;;;;;;5054487;28;19921;-70
2022/07/30 12:03:31;;;;;;;;;;;10.70;99.90;;;;;;5054345;28;19909;-70
2022/07/30 12:06:09;;;;;;;;;;;10.70;99.90;;;;;;5053956;28;19999;-70
2022/07/30 12:08:43;;;;;;;;;;;10.70;99.90;;;;;;5054515;28;19924;-69
2022/07/30 12:11:10;;;;;;;;;;;10.60;99.90;;;;;;5054339;28;19909;-71
2022/07/30 12:13:38;;;;;;;;;;;10.60;99.90;;;;;;5054251;28;19909;-69
2022/07/30 12:16:09;;;;;;;;;;;10.60;99.90;;;;;;5054074;28;20474;-69
2022/07/30 12:18:36;;;;;;;;;;;10.60;99.90;;;;;;5054088;28;19916;-70
2022/07/30 12:21:04;;;;;;;;;;;10.60;99.90;;;;;;5053428;28;19920;-69
2022/07/30 12:23:31;;;;;;;;;;;10.60;99.90;;;;;;5054040;28;19915;-69
2022/07/30 12:25:57;;;;;;;;;;;10.60;99.90;;;;;;5053972;28;19909;-69
2022/07/30 12:28:28;;;;;;;;;;;10.60;99.90;;;;;;5053824;28;19971;-69
2022/07/30 12:30:56;;;;;;;;;;;10.60;99.90;;;;;;5053923;28;20361;-70
2022/07/30 12:33:23;;;;;;;;;;;10.60;99.90;;;;;;5053764;28;19915;-70
2022/07/30 12:35:57;;;;;;;;;;;10.50;99.90;;;;;;5053305;28;19909;-69
2022/07/30 12:38:25;;;;;;;;;;;10.50;99.90;;;;;;5053717;28;19917;-70
2022/07/30 12:41:04;;;;;;;;;;;10.40;99.90;;;;;;5053942;28;19955;-70
2022/07/30 12:43:43;;;;;;;;;;;10.40;99.90;;;;;;5053648;28;20367;-68
2022/07/30 12:46:11;;;;;;;;;;;10.40;99.90;;;;;;5053530;28;20363;-70
2022/07/30 12:48:38;;;;;;;;;;;10.40;99.90;;;;;;5053403;28;19967;-69
2022/07/30 12:51:08;;;;;;;;;;;10.40;99.90;;;;;;5052267;28;19909;-70
2022/07/30 12:53:35;;;;;;;;;;;10.40;99.90;;;;;;5053967;28;19909;-69
2022/07/30 12:56:17;;;;;;;;;;;10.30;99.90;;;;;;5053325;28;20295;-69
2022/07/30 12:58:44;;;;;;;;;;;10.30;99.90;;;;;;5053385;28;19944;-70
2022/07/30 13:01:11;;;;;;;;;;;10.40;99.90;;;;;;5053284;28;19943;-69
2022/07/30 13:03:40;;;;;;;;;;;10.50;99.90;;;;;;5053495;28;19932;-69
2022/07/30 13:06:17;;;;;;;;;;;10.50;99.90;;;;;;5052662;28;20012;-70
2022/07/30 13:09:10;;;;;;;;;;;10.50;99.90;;;;;;5053374;28;19966;-69
2022/07/30 13:11:38;;;;;;;;;;;10.50;99.90;;;;;;5052216;28;19916;-69
2022/07/30 13:14:05;;;;;;;;;;;10.50;99.90;;;;;;5053054;28;19909;-69
2022/07/30 13:16:32;;;;;;;;;;;10.60;99.90;;;;;;5053268;28;19909;-69
2022/07/30 13:18:59;;;;;;;;;;;10.60;99.90;;;;;;5053118;28;19924;-70
2022/07/30 13:21:26;;;;;;;;;;;10.60;99.90;;;;;;5052644;28;19916;-69
2022/07/30 13:23:53;;;;;;;;;;;10.60;99.90;;;;;;5053086;28;20016;-69
2022/07/30 13:26:19;;;;;;;;;;;10.60;99.90;;;;;;5052806;28;19913;-69
2022/07/30 13:28:46;;;;;;;;;;;10.60;99.90;;;;;;5053361;28;19909;-68
2022/07/30 13:31:13;;;;;;;;;;;10.70;99.90;;;;;;5053127;28;19913;-69
2022/07/30 13:33:39;;;;;;;;;;;10.60;99.90;;;;;;5052931;28;20426;-68
2022/07/30 13:36:06;;;;;;;;;;;10.60;99.90;;;;;;5052134;28;19909;-69
2022/07/30 13:38:33;;;;;;;;;;;10.60;99.90;;;;;;5052845;28;19913;-69
2022/07/30 13:41:00;;;;;;;;;;;10.70;99.90;;;;;;5053017;28;19909;-69
2022/07/30 13:43:26;;;;;;;;;;;10.60;99.90;;;;;;5053031;28;19915;-69
2022/07/30 13:45:53;;;;;;;;;;;10.60;99.90;;;;;;5052962;28;20413;-69
2022/07/30 13:48:20;;;;;;;;;;;10.60;99.90;;;;;;5052632;28;19917;-68
2022/07/30 13:50:47;;;;;;;;;;;10.50;99.90;;;;;;5052361;28;19916;-69
2022/07/30 13:53:13;;;;;;;;;;;10.50;99.90;;;;;;5052895;28;20517;-70
2022/07/30 13:55:41;;;;;;;;;;;10.60;99.90;;;;;;5052845;28;20324;-69
2022/07/30 13:58:08;;;;;;;;;;;10.50;99.90;;;;;;5052553;28;19916;-69
2022/07/30 14:00:36;;;;;;;;;;;10.50;99.90;;;;;;5052616;28;20344;-69
2022/07/30 14:03:04;;;;;;;;;;;10.60;99.90;;;;;;5055335;28;19912;-69
2022/07/30 14:05:32;;;;;;;;;;;10.60;99.90;;;;;;5057063;28;19909;-69
2022/07/30 14:07:59;;;;;;;;;;;10.60;99.90;;;;;;5074391;28;19978;-70
2022/07/30 14:10:25;;;;;;;;;;;10.50;99.90;;;;;;5076479;28;19908;-69
2022/07/30 14:12:53;;;;;;;;;;;10.40;99.90;;;;;;5076693;28;19947;-70
2022/07/30 14:15:21;;;;;;;;;;;10.30;99.90;;;;;;5076604;28;19954;-69
2022/07/30 14:17:48;;;;;;;;;;;10.30;99.90;;;;;;5076386;28;19909;-69
2022/07/30 14:20:15;;;;;;;;;;;10.20;99.90;;;;;;5076172;28;19935;-69
2022/07/30 14:22:42;;;;;;;;;;;10.10;99.90;;;;;;5076499;28;20343;-69
2022/07/30 14:25:09;;;;;;;;;;;10.00;99.90;;;;;;5076477;28;19934;-69
2022/07/30 14:27:36;;;;;;;;;;;10.00;99.90;;;;;;5076362;28;19925;-69